Terminal Aerodrome Forecast
Issued by NWS Memphis, TN

Home | Current Version | Previous Version | Text Only | Print | Product List | Glossary On
Versions: 1 2 3 4 5 6 7 8 9 10 11 12 13 14 15 16 17
000
FTUS44 KMEG 271624 AAB
TAFMKL
TAF AMD
KMKL 271624Z 2716/2812 02012KT P6SM BKN025
     FM271700 02012KT P6SM SCT025
      TEMPO 2717/2718 BKN025
     FM271800 03010KT P6SM SCT035
     FM280000 02008KT P6SM OVC080=

USA.gov is the U.S. government's official web portal to all federal, state and local government web resources and services.